createdAt,value
2018-05-11T00:01:48.115Z,105091.78
2018-05-11T00:04:15.795Z,105130.41
2018-05-11T00:06:43.309Z,105118.21
2018-05-11T00:09:10.840Z,105076.53
2018-05-11T00:11:38.517Z,105091.78
2018-05-11T00:14:06.043Z,105125.33
2018-05-11T00:16:33.566Z,105172.10
2018-05-11T00:19:01.114Z,105159.91
2018-05-11T00:21:28.644Z,105190.41
2018-05-11T00:23:56.309Z,105221.93
2018-05-11T00:26:23.845Z,105259.55
2018-05-11T00:28:51.362Z,105242.27
2018-05-11T00:31:18.906Z,105295.14
2018-05-11T00:33:46.445Z,105274.80
2018-05-11T00:36:13.977Z,105274.80
2018-05-11T00:38:41.637Z,105337.84
2018-05-11T00:41:09.179Z,105323.61
2018-05-11T00:43:36.714Z,105326.66
2018-05-11T00:46:04.450Z,105358.18
2018-05-11T00:48:31.969Z,105350.05
2018-05-11T00:50:59.510Z,105359.20
2018-05-11T00:53:27.465Z,105360.22
2018-05-11T00:55:55.007Z,105374.45
2018-05-11T00:58:22.529Z,105324.63
2018-05-11T01:00:50.101Z,105358.18
2018-05-11T01:03:17.630Z,105395.80
2018-05-11T01:05:45.151Z,105396.83
2018-05-11T01:08:12.698Z,105406.99
2018-05-11T01:10:40.226Z,105396.83
2018-05-11T01:13:07.791Z,105391.73
2018-05-11T01:15:35.323Z,105383.60
2018-05-11T01:18:02.997Z,105431.40
2018-05-11T01:20:30.526Z,105406.99
2018-05-11T01:22:58.045Z,105413.09
2018-05-11T01:25:25.602Z,105383.60
2018-05-11T01:27:53.151Z,105323.61
2018-05-11T01:30:20.857Z,105266.67
2018-05-11T01:32:48.382Z,105195.49
2018-05-11T01:35:15.905Z,105242.27
2018-05-11T01:37:43.482Z,105189.39
2018-05-11T01:40:11.019Z,105134.48
2018-05-11T01:42:38.546Z,105118.21
2018-05-11T01:45:06.113Z,105101.95
2018-05-11T01:47:33.642Z,105037.89
2018-05-11T01:50:01.653Z,105080.59
2018-05-11T01:52:29.306Z,105050.09
2018-05-11T01:54:56.826Z,105039.92
2018-05-11T01:57:24.577Z,105066.36
2018-05-11T01:59:52.103Z,105067.37
2018-05-11T02:02:19.629Z,105035.86
2018-05-11T02:04:47.305Z,104982.98
2018-05-11T02:07:14.840Z,105008.41
2018-05-11T02:09:42.361Z,104963.67
2018-05-11T02:12:10.110Z,104953.50
2018-05-11T02:14:37.638Z,104954.52
2018-05-11T02:17:05.164Z,104905.71
2018-05-11T02:19:32.952Z,104907.75
2018-05-11T02:22:00.481Z,104892.49
2018-05-11T02:24:28.040Z,104867.08
2018-05-11T02:26:55.971Z,104884.36
2018-05-11T02:29:23.510Z,104840.64
2018-05-11T02:31:51.033Z,104839.63
2018-05-11T02:34:18.598Z,104851.83
2018-05-11T02:36:46.135Z,104857.92
2018-05-11T02:39:13.807Z,104869.11
2018-05-11T02:41:41.348Z,104804.04
2018-05-11T02:44:08.879Z,104809.13
2018-05-11T02:46:36.446Z,104817.26
2018-05-11T02:49:03.989Z,104788.79
2018-05-11T02:51:31.542Z,104815.23
2018-05-11T02:53:59.074Z,104780.66
2018-05-11T02:56:26.662Z,104783.70
2018-05-11T02:58:54.210Z,104797.94
2018-05-11T03:01:21.735Z,104809.13
2018-05-11T03:03:49.310Z,104782.69
2018-05-11T03:06:16.850Z,104788.79
2018-05-11T03:08:44.384Z,104755.24
2018-05-11T03:11:11.978Z,104663.73
2018-05-11T03:13:39.507Z,104663.73
2018-05-11T03:16:07.030Z,104721.69
2018-05-11T03:18:34.895Z,104752.19
2018-05-11T03:21:02.349Z,104761.34
2018-05-11T03:23:29.882Z,104690.17
2018-05-11T03:25:57.623Z,104654.59
2018-05-11T03:28:25.141Z,104706.44
2018-05-11T03:30:52.677Z,104687.13
2018-05-11T03:33:20.223Z,104642.39
2018-05-11T03:35:47.750Z,104621.04
2018-05-11T03:38:15.490Z,104587.49
2018-05-11T03:40:43.006Z,104602.74
2018-05-11T03:43:10.530Z,104650.52
2018-05-11T03:45:38.087Z,104629.17
2018-05-11T03:48:05.629Z,104635.27
2018-05-11T03:50:33.567Z,104675.94
2018-05-11T03:53:01.092Z,104660.69
2018-05-11T03:55:28.609Z,104711.52
2018-05-11T03:57:56.164Z,104707.45
2018-05-11T04:00:23.714Z,104701.36
2018-05-11T04:03:03.157Z,104697.30
2018-05-11T04:05:42.521Z,104692.20
2018-05-11T04:08:22.928Z,104677.97
2018-05-11T04:10:50.482Z,104672.89
2018-05-11T04:13:18.074Z,104576.31
2018-05-11T04:15:45.608Z,104540.73
2018-05-11T04:18:13.129Z,104528.53
2018-05-11T04:20:40.695Z,104501.08
2018-05-11T04:23:08.246Z,104518.36
2018-05-11T04:25:35.769Z,104510.23
2018-05-11T04:28:03.467Z,104413.66
2018-05-11T04:30:30.994Z,104424.84
2018-05-11T04:32:58.523Z,104399.42
2018-05-11T04:35:26.243Z,104308.95
2018-05-11T04:37:53.766Z,104255.07
2018-05-11T04:40:21.289Z,104214.41
2018-05-11T04:42:48.954Z,104203.23
2018-05-11T04:45:16.499Z,104204.25
2018-05-11T04:47:44.043Z,104176.80
2018-05-11T04:50:11.598Z,104204.25
2018-05-11T04:52:39.146Z,104120.89
2018-05-11T04:55:06.817Z,104131.06
2018-05-11T04:57:34.329Z,104149.36
2018-05-11T05:00:01.851Z,104096.50
2018-05-11T05:02:29.406Z,104090.40
2018-05-11T05:04:56.929Z,104118.86
2018-05-11T05:07:24.666Z,104106.66
2018-05-11T05:09:52.201Z,104144.27
2018-05-11T05:12:19.778Z,104160.53
2018-05-11T05:14:47.298Z,104121.91
2018-05-11T05:17:14.939Z,104130.04
2018-05-11T05:19:42.422Z,104076.17
2018-05-11T05:22:09.947Z,104083.28
2018-05-11T05:24:37.613Z,104102.59
2018-05-11T05:27:05.129Z,104040.59
2018-05-11T05:29:32.651Z,104015.17
2018-05-11T05:32:00.271Z,104083.28
2018-05-11T05:34:27.798Z,104076.17
2018-05-11T05:36:55.336Z,104036.52
2018-05-11T05:39:23.682Z,103936.91
2018-05-11T05:41:51.198Z,104028.39
2018-05-11T05:44:18.741Z,103895.23
2018-05-11T05:46:46.315Z,103984.69
2018-05-11T05:49:13.840Z,103836.28
2018-05-11T05:51:41.830Z,103850.52
2018-05-11T05:54:09.362Z,103940.98
2018-05-11T05:56:36.885Z,103881.01
2018-05-11T05:59:04.451Z,103977.57
2018-05-11T06:01:32.010Z,103783.44
2018-05-11T06:03:59.546Z,103733.62
2018-05-11T06:06:27.104Z,103749.89
2018-05-11T06:08:54.617Z,103649.27
2018-05-11T06:11:22.194Z,103537.47
2018-05-11T06:13:49.709Z,103769.20
2018-05-11T06:16:17.242Z,103489.70
2018-05-11T06:18:44.787Z,103510.03
2018-05-11T06:21:12.326Z,103593.38
2018-05-11T06:23:39.861Z,103692.98
2018-05-11T06:26:07.384Z,103767.17
2018-05-11T06:28:34.927Z,103771.23
2018-05-11T06:31:02.450Z,103701.11
2018-05-11T06:33:30.362Z,103603.53
2018-05-11T06:35:57.889Z,103595.41
2018-05-11T06:38:25.405Z,103552.72
2018-05-11T06:40:52.999Z,103628.95
2018-05-11T06:43:20.526Z,103680.78
2018-05-11T06:45:48.063Z,103739.73
2018-05-11T06:48:15.813Z,103577.11
2018-05-11T06:50:43.349Z,103701.11
2018-05-11T06:53:10.876Z,103740.75
2018-05-11T06:55:38.544Z,103595.41
2018-05-11T06:58:06.095Z,103584.23
2018-05-11T07:00:33.613Z,103668.58
2018-05-11T07:03:01.155Z,103700.09
2018-05-11T07:05:29.118Z,103748.87
2018-05-11T07:07:56.691Z,103638.09
2018-05-11T07:10:24.198Z,103621.83
2018-05-11T07:12:51.958Z,103683.83
2018-05-11T07:15:19.478Z,103509.02
2018-05-11T07:17:47.456Z,103478.53
2018-05-11T07:20:14.975Z,103412.47
2018-05-11T07:22:42.493Z,103317.95
2018-05-11T07:25:10.442Z,103361.66
2018-05-11T07:27:37.972Z,103353.52
2018-05-11T07:30:05.501Z,103345.39
2018-05-11T07:32:33.041Z,103565.94
2018-05-11T07:35:00.624Z,103393.16
2018-05-11T07:37:28.130Z,103610.66
2018-05-11T07:39:55.674Z,103525.28
2018-05-11T07:42:23.237Z,103233.61
2018-05-11T07:44:50.764Z,103073.05
2018-05-11T07:47:18.791Z,103287.47
2018-05-11T07:49:46.311Z,102963.30
2018-05-11T07:52:13.837Z,103301.70
2018-05-11T07:54:41.378Z,103358.61
2018-05-11T07:57:08.921Z,103234.62
2018-05-11T07:59:36.489Z,103461.25
2018-05-11T08:02:04.050Z,103560.84
2018-05-11T08:04:31.561Z,103392.14
2018-05-11T08:06:59.102Z,103303.73
2018-05-11T08:09:26.622Z,103061.87
2018-05-11T08:11:54.198Z,102768.20
2018-05-11T08:14:21.788Z,102890.14
2018-05-11T08:16:49.279Z,102960.25
2018-05-11T08:19:16.833Z,102532.47
2018-05-11T08:21:44.349Z,103039.52
2018-05-11T08:24:11.889Z,102860.67
2018-05-11T08:26:39.496Z,103083.20
2018-05-11T08:29:07.038Z,103077.11
2018-05-11T08:31:34.594Z,102839.33
2018-05-11T08:34:02.151Z,103131.98
2018-05-11T08:36:29.702Z,103005.98
2018-05-11T08:38:57.227Z,102854.57
2018-05-11T08:41:24.783Z,102667.61
2018-05-11T08:43:52.301Z,102842.38
2018-05-11T08:46:19.939Z,102998.86
2018-05-11T08:48:47.422Z,102847.46
2018-05-11T08:51:14.954Z,102653.39
2018-05-11T08:53:42.498Z,102681.84
2018-05-11T08:56:10.023Z,102933.83
2018-05-11T08:58:37.579Z,102903.34
2018-05-11T09:01:05.105Z,102816.97
2018-05-11T09:03:32.646Z,102684.88
2018-05-11T09:06:00.182Z,102574.13
2018-05-11T09:08:27.705Z,102678.79
2018-05-11T09:10:55.245Z,102260.19
2018-05-11T09:13:22.778Z,102446.11
2018-05-11T09:15:50.510Z,102573.12
2018-05-11T09:18:18.028Z,102465.42
2018-05-11T09:20:45.545Z,102333.34
2018-05-11T09:23:13.081Z,102047.86
2018-05-11T09:25:40.618Z,102119.99
2018-05-11T09:28:08.134Z,101744.12
2018-05-11T09:30:35.747Z,101649.66
2018-05-11T09:33:03.274Z,101862.98
2018-05-11T09:35:30.798Z,102114.91
2018-05-11T09:37:58.393Z,102443.06
2018-05-11T09:40:25.920Z,102290.67
2018-05-11T09:42:53.446Z,102485.73
2018-05-11T09:45:20.985Z,102287.63
2018-05-11T09:47:48.511Z,102441.03
2018-05-11T09:50:16.226Z,102682.85
2018-05-11T09:52:43.762Z,102552.80
2018-05-11T09:55:11.277Z,102500.98
2018-05-11T09:57:38.830Z,102393.28
2018-05-11T10:00:06.374Z,102126.09
2018-05-11T10:02:33.959Z,102228.70
2018-05-11T10:05:01.487Z,101678.09
2018-05-11T10:07:29.005Z,101997.06
2018-05-11T10:09:56.591Z,101630.36
2018-05-11T10:12:24.118Z,101572.45
2018-05-11T10:14:51.750Z,101333.77
2018-05-11T10:17:19.295Z,101313.45
2018-05-11T10:19:46.905Z,101469.88
2018-05-11T10:22:14.434Z,101668.95
2018-05-11T10:24:41.956Z,101876.19
2018-05-11T10:27:09.509Z,101801.01
2018-05-11T10:29:37.053Z,102160.62
2018-05-11T10:32:04.592Z,102300.83
2018-05-11T10:34:32.198Z,102422.75
2018-05-11T10:36:59.731Z,102474.56
2018-05-11T10:39:27.271Z,102238.85
2018-05-11T10:41:55.162Z,102566.00
2018-05-11T10:44:22.678Z,102483.70
2018-05-11T10:46:50.200Z,102005.20
2018-05-11T10:49:17.754Z,102222.59
2018-05-11T10:51:45.762Z,101914.78
2018-05-11T10:54:13.295Z,101651.69
2018-05-11T10:56:40.839Z,101985.89
2018-05-11T10:59:08.409Z,101965.58
2018-05-11T11:01:35.944Z,101791.87
2018-05-11T11:04:03.636Z,102142.34
2018-05-11T11:06:31.157Z,102195.17
2018-05-11T11:08:58.673Z,101865.01
2018-05-11T11:11:26.249Z,101687.23
2018-05-11T11:13:53.898Z,101220.02
2018-05-11T11:16:21.421Z,101597.85
2018-05-11T11:18:48.966Z,101851.80
2018-05-11T11:21:16.501Z,101746.16
2018-05-11T11:23:44.384Z,101601.91
2018-05-11T11:26:11.910Z,101461.74
2018-05-11T11:28:39.429Z,101338.84
2018-05-11T11:31:07.049Z,101429.24
2018-05-11T11:33:34.522Z,101364.23
2018-05-11T11:36:02.087Z,101241.34
2018-05-11T11:38:29.628Z,101292.13
2018-05-11T11:40:57.167Z,100986.42
2018-05-11T11:43:24.901Z,101338.84
2018-05-11T11:45:52.431Z,101150.95
2018-05-11T11:48:19.952Z,101501.36
2018-05-11T11:50:47.507Z,101545.03
2018-05-11T11:53:15.039Z,101544.02
2018-05-11T11:55:42.614Z,101594.80
2018-05-11T11:58:10.146Z,101638.48
2018-05-11T12:00:37.713Z,101619.19
2018-05-11T12:03:05.262Z,101818.28
2018-05-11T12:05:32.785Z,101804.06
2018-05-11T12:08:00.340Z,101761.39
2018-05-11T12:10:27.873Z,101421.12
2018-05-11T12:12:55.461Z,101442.45
2018-05-11T12:15:23.010Z,101600.90
2018-05-11T12:17:50.533Z,101546.05
2018-05-11T12:20:18.089Z,101405.88
2018-05-11T12:22:45.639Z,101271.81
2018-05-11T12:25:13.185Z,101163.14
2018-05-11T12:27:40.730Z,101420.09
2018-05-11T12:30:08.305Z,101180.40
2018-05-11T12:32:35.821Z,101069.70
2018-05-11T12:35:03.351Z,101437.37
2018-05-11T12:37:31.001Z,101244.39
2018-05-11T12:39:58.610Z,101167.20
2018-05-11T12:42:26.075Z,101307.36
2018-05-11T12:44:53.645Z,101216.97
2018-05-11T12:47:21.179Z,101366.27
2018-05-11T12:49:48.743Z,101155.02
2018-05-11T12:52:16.301Z,101048.38
2018-05-11T12:57:17.938Z,101166.18
2018-05-11T12:59:45.477Z,101431.27
2018-05-11T13:02:13.027Z,101225.09
2018-05-11T13:04:40.615Z,101255.56
2018-05-11T13:07:08.179Z,101028.06
2018-05-11T13:09:35.727Z,101049.39
2018-05-11T13:12:03.274Z,100983.38
2018-05-11T13:14:30.837Z,100881.81
2018-05-11T13:16:58.425Z,100940.72
2018-05-11T13:19:25.960Z,101108.29
2018-05-11T13:21:53.481Z,101050.41
2018-05-11T13:24:21.020Z,101112.36
2018-05-11T13:26:48.560Z,101139.78
2018-05-11T13:29:16.086Z,100995.56
2018-05-11T13:31:43.979Z,101213.92
2018-05-11T13:34:11.510Z,101300.25
2018-05-11T13:36:39.050Z,101105.25
2018-05-11T13:39:06.605Z,101160.09
2018-05-11T13:41:34.121Z,101050.41
2018-05-11T13:44:01.718Z,101049.39
2018-05-11T13:46:29.248Z,101066.66
2018-05-11T13:48:56.762Z,101246.42
2018-05-11T13:51:24.442Z,101220.02
2018-05-11T13:53:51.962Z,101025.02
2018-05-11T13:56:19.571Z,101047.36
2018-05-11T13:58:47.067Z,100892.98
2018-05-11T14:01:14.581Z,100927.52
2018-05-11T14:03:42.138Z,100987.44
2018-05-11T14:06:09.681Z,100788.39
2018-05-11T14:08:37.226Z,100781.28
2018-05-11T14:11:04.763Z,100901.11
2018-05-11T14:13:32.278Z,100818.86
2018-05-11T14:15:59.826Z,100813.77
2018-05-11T14:18:27.347Z,100700.04
2018-05-11T14:20:54.885Z,100919.39
2018-05-11T14:24:42.497Z,100741.67
2018-05-11T14:27:10.014Z,100640.13
2018-05-11T14:29:37.567Z,100676.69
2018-05-11T14:32:05.142Z,100769.09
2018-05-11T14:34:32.709Z,100584.27
2018-05-11T14:37:00.218Z,100492.89
2018-05-11T14:39:27.761Z,100351.74
2018-05-11T14:41:55.413Z,100621.84
2018-05-11T14:44:22.934Z,100815.81
2018-05-11T14:46:50.465Z,100717.30
2018-05-11T14:49:18.409Z,100786.36
2018-05-11T14:51:45.929Z,100717.30
2018-05-11T14:54:13.450Z,100726.44
2018-05-11T14:56:40.992Z,100651.30
2018-05-11T14:59:08.514Z,100771.12
2018-05-11T15:01:36.060Z,100505.07
2018-05-11T15:04:03.590Z,100579.20
2018-05-11T15:06:31.137Z,100477.66
2018-05-11T15:08:58.672Z,100546.70
2018-05-11T15:11:26.188Z,100671.61
2018-05-11T15:13:53.731Z,100322.30
2018-05-11T15:16:21.246Z,100424.85
2018-05-11T15:18:48.801Z,100192.33
2018-05-11T15:21:16.314Z,100285.74
2018-05-11T15:23:43.940Z,100304.02
2018-05-11T15:26:11.399Z,100360.88
2018-05-11T15:28:38.948Z,100556.86
2018-05-11T15:31:06.495Z,100542.64
2018-05-11T15:33:34.059Z,100633.02
2018-05-11T15:36:01.582Z,100506.09
2018-05-11T15:38:29.104Z,100580.21
2018-05-11T15:40:56.641Z,100657.39
2018-05-11T15:43:24.166Z,100621.84
2018-05-11T15:45:51.711Z,100551.78
2018-05-11T15:48:19.221Z,100438.05
2018-05-11T15:50:46.741Z,100578.19
2018-05-11T15:53:14.340Z,100551.78
2018-05-11T15:55:41.864Z,100404.54
2018-05-11T15:58:09.428Z,100458.36
2018-05-11T16:00:37.039Z,100354.79
2018-05-11T16:03:04.597Z,100514.20
2018-05-11T16:05:32.157Z,100396.42
2018-05-11T16:07:59.722Z,100516.23
2018-05-11T16:10:27.251Z,100377.13
2018-05-11T16:12:54.902Z,100424.85
2018-05-11T16:15:22.351Z,100357.83
2018-05-11T16:17:49.893Z,100524.36
2018-05-11T16:20:17.442Z,100345.65
2018-05-11T16:22:45.015Z,100371.03
2018-05-11T16:25:12.669Z,100243.09
2018-05-11T16:27:40.203Z,100466.48
2018-05-11T16:30:07.730Z,100267.47
2018-05-11T16:32:35.270Z,100184.20
2018-05-11T16:35:02.808Z,100449.22
2018-05-11T16:37:30.378Z,100424.85
2018-05-11T16:39:58.121Z,100451.25
2018-05-11T16:42:25.643Z,100390.33
2018-05-11T16:44:53.190Z,100375.09
2018-05-11T16:47:20.708Z,100586.30
2018-05-11T16:49:48.251Z,100422.82
2018-05-11T16:52:15.769Z,100328.39
2018-05-11T16:54:43.315Z,100460.39
2018-05-11T16:57:10.859Z,100489.84
2018-05-11T16:59:38.393Z,100448.20
2018-05-11T17:02:05.918Z,100524.36
2018-05-11T17:04:33.891Z,100369.00
2018-05-11T17:07:01.423Z,100306.05
2018-05-11T17:09:28.955Z,100495.93
2018-05-11T17:11:56.602Z,100418.76
2018-05-11T17:14:24.113Z,100380.17
2018-05-11T17:16:51.635Z,100546.70
2018-05-11T17:19:19.189Z,100459.38
2018-05-11T17:21:46.701Z,100660.44
2018-05-11T17:24:14.351Z,100525.37
2018-05-11T17:26:41.889Z,100633.02
2018-05-11T17:29:09.403Z,100542.64
2018-05-11T17:31:36.957Z,100704.10
2018-05-11T17:34:04.478Z,100672.62
2018-05-11T17:36:32.020Z,100782.30
2018-05-11T17:39:00.153Z,100808.70
2018-05-11T17:41:27.659Z,100925.48
2018-05-11T17:43:55.173Z,101008.77
2018-05-11T17:46:22.764Z,101052.44
2018-05-11T17:48:50.286Z,101061.58
2018-05-11T17:51:17.817Z,101064.63
2018-05-11T17:53:45.366Z,101134.70
2018-05-11T17:56:12.895Z,101208.84
2018-05-11T17:58:40.472Z,101226.11
2018-05-11T18:01:07.997Z,101212.91
2018-05-11T18:03:35.533Z,101188.53
2018-05-11T18:06:03.049Z,101020.95
2018-05-11T18:08:30.639Z,101057.52
2018-05-11T18:10:58.159Z,101178.37
2018-05-11T18:13:25.673Z,101152.98
2018-05-11T18:15:53.378Z,101300.25
2018-05-11T18:18:20.897Z,101286.03
2018-05-11T18:20:48.415Z,101362.20
2018-05-11T18:23:15.973Z,101353.06
2018-05-11T18:25:43.494Z,101275.88
2018-05-11T18:28:11.086Z,101381.50
2018-05-11T18:30:38.781Z,101432.28
2018-05-11T18:33:06.307Z,101475.96
2018-05-11T18:35:33.835Z,101416.03
2018-05-11T18:38:01.427Z,101476.98
2018-05-11T18:40:28.957Z,101500.34
2018-05-11T18:42:56.487Z,101533.86
2018-05-11T18:45:24.138Z,101519.64
2018-05-11T18:47:51.723Z,101604.97
2018-05-11T18:50:19.257Z,101601.91
2018-05-11T18:52:46.804Z,101700.45
2018-05-11T18:55:14.816Z,101707.56
2018-05-11T18:57:42.422Z,101696.38
2018-05-11T19:00:09.970Z,101702.48
2018-05-11T19:02:37.516Z,101796.95
2018-05-11T19:05:05.861Z,101837.58
2018-05-11T19:07:33.446Z,101770.53
2018-05-11T19:10:00.972Z,101823.36
2018-05-11T19:12:28.557Z,101929.01
2018-05-11T19:14:56.312Z,101792.88
2018-05-11T19:17:23.845Z,101914.78
2018-05-11T19:19:51.802Z,102004.18
2018-05-11T19:22:19.320Z,102166.72
2018-05-11T19:24:46.856Z,102235.80
2018-05-11T19:27:14.401Z,102240.89
2018-05-11T19:29:41.943Z,102281.52
2018-05-11T19:32:09.615Z,102276.45
2018-05-11T19:34:37.968Z,102372.96
2018-05-11T19:37:05.503Z,102338.42
2018-05-11T19:39:33.041Z,102363.81
2018-05-11T19:42:00.611Z,102356.70
2018-05-11T19:44:28.276Z,102264.25
2018-05-11T19:46:55.806Z,102156.56
2018-05-11T19:49:23.321Z,102177.90
2018-05-11T19:51:50.865Z,102162.66
2018-05-11T19:54:18.402Z,102140.31
2018-05-11T19:56:45.959Z,102185.02
2018-05-11T19:59:13.486Z,102095.61
2018-05-11T20:01:41.048Z,102156.56
2018-05-11T20:04:08.643Z,102093.58
2018-05-11T20:06:36.174Z,102116.95
2018-05-11T20:09:03.861Z,102134.22
2018-05-11T20:11:31.387Z,102074.28
2018-05-11T20:13:58.922Z,102079.36
2018-05-11T20:16:26.471Z,102115.93
2018-05-11T20:18:53.994Z,102173.84
2018-05-11T20:21:21.638Z,102122.02
2018-05-11T20:23:49.170Z,102156.56
2018-05-11T20:26:17.338Z,102166.72
2018-05-11T20:28:44.891Z,102220.56
2018-05-11T20:31:12.415Z,102279.49
2018-05-11T20:33:40.061Z,102165.70
2018-05-11T20:36:07.577Z,102172.82
2018-05-11T20:38:35.101Z,102195.17
2018-05-11T20:41:03.675Z,102215.48
2018-05-11T20:43:31.194Z,102256.13
2018-05-11T20:45:58.734Z,102227.68
2018-05-11T20:48:26.286Z,102228.70
2018-05-11T20:50:53.842Z,102233.77
2018-05-11T20:53:21.789Z,102283.56
2018-05-11T20:55:49.314Z,102289.66
2018-05-11T20:58:16.832Z,102277.46
2018-05-11T21:00:44.697Z,102370.93
2018-05-11T21:03:12.250Z,102249.02
2018-05-11T21:05:39.841Z,102273.40
2018-05-11T21:08:08.001Z,102267.30
2018-05-11T21:10:35.589Z,102250.03
2018-05-11T21:13:03.133Z,102280.51
2018-05-11T21:15:30.681Z,102306.92
2018-05-11T21:17:58.225Z,102300.83
2018-05-11T21:20:25.855Z,102343.50
2018-05-11T21:22:53.422Z,102325.21
2018-05-11T21:25:20.959Z,102294.73
2018-05-11T21:27:48.510Z,102322.16
2018-05-11T21:30:16.109Z,102328.26
2018-05-11T21:32:43.635Z,102327.24
2018-05-11T21:35:11.165Z,102382.11
2018-05-11T21:37:38.738Z,102372.96
2018-05-11T21:40:06.262Z,102400.39
2018-05-11T21:42:33.781Z,102298.80
2018-05-11T21:45:01.362Z,102326.23
2018-05-11T21:47:28.884Z,102332.32
2018-05-11T21:49:56.414Z,102248.00
2018-05-11T21:52:23.959Z,102368.90
2018-05-11T21:54:51.629Z,102390.23
2018-05-11T21:57:19.154Z,102320.12
2018-05-11T21:59:46.699Z,102327.24
2018-05-11T22:02:14.250Z,102370.93
2018-05-11T22:04:41.778Z,102341.47
2018-05-11T22:07:09.438Z,102324.20
2018-05-11T22:09:36.967Z,102394.30
2018-05-11T22:12:04.497Z,102342.48
2018-05-11T22:14:32.059Z,102312.00
2018-05-11T22:16:59.602Z,102369.91
2018-05-11T22:19:27.295Z,102370.93
2018-05-11T22:21:54.828Z,102376.01
2018-05-11T22:24:22.376Z,102407.50
2018-05-11T22:26:50.051Z,102483.70
2018-05-11T22:29:17.592Z,102422.75
2018-05-11T22:31:45.126Z,102406.48
2018-05-11T22:34:12.686Z,102453.23
2018-05-11T22:36:40.230Z,102533.48
2018-05-11T22:39:07.885Z,102439.00
2018-05-11T22:41:35.418Z,102428.84
2018-05-11T22:44:02.976Z,102443.06
2018-05-11T22:46:30.558Z,102448.14
2018-05-11T22:48:58.434Z,102498.95
2018-05-11T22:51:25.968Z,102477.61
2018-05-11T22:53:53.495Z,102407.50
2018-05-11T22:56:21.067Z,102503.01
2018-05-11T22:58:48.593Z,102505.04
2018-05-11T23:01:16.113Z,102513.17
2018-05-11T23:03:43.820Z,102444.08
2018-05-11T23:06:11.336Z,102461.35
2018-05-11T23:08:38.882Z,102517.23
2018-05-11T23:11:06.442Z,102470.50
2018-05-11T23:13:33.971Z,102507.08
2018-05-11T23:16:01.683Z,102554.83
2018-05-11T23:18:29.214Z,102580.23
2018-05-11T23:20:56.763Z,102568.03
2018-05-11T23:23:24.318Z,102552.80
2018-05-11T23:25:51.917Z,102584.30
2018-05-11T23:28:19.462Z,102481.67
2018-05-11T23:30:46.987Z,102536.54
2018-05-11T23:33:14.583Z,102539.59
2018-05-11T23:35:42.114Z,102473.55
2018-05-11T23:38:09.708Z,102465.42
2018-05-11T23:40:37.261Z,102551.78
2018-05-11T23:43:04.794Z,102552.80
2018-05-11T23:45:32.357Z,102593.44
2018-05-11T23:47:59.890Z,102596.48
2018-05-11T23:50:27.707Z,102572.10
2018-05-11T23:52:55.239Z,102600.55
2018-05-11T23:55:22.778Z,102551.78
2018-05-11T23:57:50.326Z,102473.55
